createdAt,value
2023-05-14T00:00:36.507Z,11.28
2023-05-14T00:03:03.175Z,11.30
2023-05-14T00:05:29.781Z,11.27
2023-05-14T00:07:56.397Z,11.28
2023-05-14T00:10:23.146Z,11.24
2023-05-14T00:12:51.872Z,11.27
2023-05-14T00:15:18.458Z,11.28
2023-05-14T00:17:45.264Z,11.16
2023-05-14T00:20:12.314Z,11.08
2023-05-14T00:22:39.862Z,11.07
2023-05-14T00:25:07.859Z,11.01
2023-05-14T00:27:35.243Z,11.01
2023-05-14T00:30:08.760Z,11.00
2023-05-14T00:32:35.370Z,10.97
2023-05-14T00:35:04.335Z,11.01
2023-05-14T00:37:30.936Z,11.01
2023-05-14T00:39:57.897Z,11.01
2023-05-14T00:42:24.433Z,10.86
2023-05-14T00:44:50.954Z,10.83
2023-05-14T00:47:17.629Z,10.96
2023-05-14T00:49:45.560Z,10.84
2023-05-14T00:52:12.330Z,10.96
2023-05-14T00:54:39.076Z,10.93
2023-05-14T00:57:06.687Z,10.84
2023-05-14T00:59:33.592Z,10.73
2023-05-14T01:02:00.317Z,10.68
2023-05-14T01:04:27.179Z,10.76
2023-05-14T01:07:20.145Z,10.60
2023-05-14T01:10:11.682Z,10.56
2023-05-14T01:13:09.120Z,10.63
2023-05-14T01:15:39.188Z,10.70
2023-05-14T01:18:09.465Z,10.66
2023-05-14T01:20:36.536Z,10.76
2023-05-14T01:23:03.568Z,10.62
2023-05-14T01:25:31.365Z,10.75
2023-05-14T01:28:18.088Z,10.53
2023-05-14T01:30:44.568Z,10.42
2023-05-14T01:33:13.432Z,10.31
2023-05-14T01:35:40.651Z,10.32
2023-05-14T01:38:11.082Z,10.28
2023-05-14T01:40:38.378Z,10.38
2023-05-14T01:43:05.828Z,10.25
2023-05-14T01:45:35.720Z,10.29
2023-05-14T01:48:02.338Z,10.26
2023-05-14T01:50:28.877Z,10.22
2023-05-14T01:52:56.782Z,10.24
2023-05-14T01:55:24.809Z,10.20
2023-05-14T01:57:52.552Z,10.12
2023-05-14T02:00:20.593Z,10.07
2023-05-14T02:02:49.405Z,10.18
2023-05-14T02:05:15.972Z,10.08
2023-05-14T02:07:42.495Z,10.10
2023-05-14T02:10:09.837Z,10.02
2023-05-14T02:12:36.359Z,10.02
2023-05-14T02:15:06.755Z,9.94
2023-05-14T02:17:33.690Z,10.10
2023-05-14T02:20:00.231Z,9.98
2023-05-14T02:22:26.784Z,9.90
2023-05-14T02:24:53.299Z,9.89
2023-05-14T02:27:19.863Z,9.89
2023-05-14T02:29:46.523Z,9.77
2023-05-14T02:32:13.134Z,9.80
2023-05-14T02:34:39.726Z,9.80
2023-05-14T02:37:06.283Z,9.84
2023-05-14T02:39:32.841Z,9.60
2023-05-14T02:41:59.558Z,9.54
2023-05-14T02:44:26.089Z,9.49
2023-05-14T02:46:52.607Z,9.39
2023-05-14T02:49:19.211Z,9.29
2023-05-14T02:51:45.875Z,9.39
2023-05-14T02:54:12.348Z,9.38
2023-05-14T02:56:38.954Z,9.47
2023-05-14T02:59:05.424Z,9.46
2023-05-14T03:01:32.301Z,9.39
2023-05-14T03:03:59.225Z,9.39
2023-05-14T03:06:25.881Z,9.44
2023-05-14T03:08:52.496Z,9.39
2023-05-14T03:11:19.063Z,9.36
2023-05-14T03:13:45.646Z,9.31
2023-05-14T03:16:13.023Z,9.28
2023-05-14T03:18:39.652Z,9.42
2023-05-14T03:21:06.686Z,9.42
2023-05-14T03:23:35.009Z,9.38
2023-05-14T03:26:02.245Z,9.32
2023-05-14T03:28:29.066Z,9.25
2023-05-14T03:30:55.805Z,9.40
2023-05-14T03:33:22.861Z,9.18
2023-05-14T03:35:49.448Z,9.14
2023-05-14T03:38:16.283Z,9.21
2023-05-14T03:40:44.008Z,9.15
2023-05-14T03:43:11.405Z,9.00
2023-05-14T03:45:37.955Z,9.07
2023-05-14T03:48:05.047Z,9.08
2023-05-14T03:50:31.924Z,9.26
2023-05-14T03:52:58.378Z,9.29
2023-05-14T03:55:24.921Z,9.32
2023-05-14T03:57:51.488Z,9.19
2023-05-14T04:00:18.201Z,9.19
2023-05-14T04:02:44.834Z,9.12
2023-05-14T04:05:11.468Z,9.08
2023-05-14T04:07:38.080Z,8.97
2023-05-14T04:10:05.017Z,8.89
2023-05-14T04:12:31.572Z,8.95
2023-05-14T04:14:58.614Z,8.92
2023-05-14T04:17:25.762Z,8.89
2023-05-14T04:19:52.542Z,8.91
2023-05-14T04:22:19.538Z,8.92
2023-05-14T04:24:46.067Z,8.89
2023-05-14T04:27:21.186Z,8.91
2023-05-14T04:29:48.715Z,9.00
2023-05-14T04:32:15.218Z,9.01
2023-05-14T04:34:42.153Z,9.04
2023-05-14T04:37:08.990Z,9.01
2023-05-14T04:39:35.762Z,9.05
2023-05-14T04:42:02.418Z,9.08
2023-05-14T04:44:28.886Z,9.10
2023-05-14T04:46:55.605Z,9.19
2023-05-14T04:49:22.341Z,9.36
2023-05-14T04:51:49.441Z,9.38
2023-05-14T04:54:15.953Z,9.38
2023-05-14T04:56:42.895Z,9.42
2023-05-14T04:59:09.409Z,9.52
2023-05-14T05:01:36.206Z,9.50
2023-05-14T05:04:03.158Z,9.66
2023-05-14T05:06:30.008Z,9.76
2023-05-14T05:08:56.530Z,9.84
2023-05-14T05:11:23.035Z,9.87
2023-05-14T05:13:49.687Z,9.83
2023-05-14T05:16:16.405Z,9.97
2023-05-14T05:18:44.591Z,10.10
2023-05-14T05:21:11.396Z,10.07
2023-05-14T05:23:37.957Z,10.12
2023-05-14T05:26:04.516Z,10.18
2023-05-14T05:28:33.588Z,10.24
2023-05-14T05:31:00.311Z,10.33
2023-05-14T05:33:27.007Z,10.33
2023-05-14T05:35:53.557Z,10.41
2023-05-14T05:38:20.099Z,10.50
2023-05-14T05:40:46.787Z,10.62
2023-05-14T05:43:13.934Z,10.69
2023-05-14T05:45:41.588Z,10.81
2023-05-14T05:48:08.265Z,10.90
2023-05-14T05:50:34.985Z,11.06
2023-05-14T05:53:01.628Z,11.18
2023-05-14T05:55:28.911Z,11.27
2023-05-14T05:57:56.166Z,11.11
2023-05-14T06:00:23.850Z,11.20
2023-05-14T06:02:50.770Z,11.28
2023-05-14T06:05:20.110Z,11.32
2023-05-14T06:07:46.677Z,11.37
2023-05-14T06:10:13.291Z,11.45
2023-05-14T06:12:42.794Z,11.52
2023-05-14T06:15:09.662Z,11.45
2023-05-14T06:17:36.243Z,11.54
2023-05-14T06:20:02.798Z,11.52
2023-05-14T06:22:29.310Z,11.44
2023-05-14T06:24:55.819Z,11.55
2023-05-14T06:27:22.749Z,11.65
2023-05-14T06:32:36.417Z,11.76
2023-05-14T06:35:03.196Z,11.85
2023-05-14T06:37:30.052Z,12.00
2023-05-14T06:39:57.873Z,12.07
2023-05-14T06:42:24.647Z,12.10
2023-05-14T06:44:51.271Z,12.18
2023-05-14T06:47:17.925Z,12.33
2023-05-14T06:49:44.508Z,12.41
2023-05-14T06:52:11.115Z,12.55
2023-05-14T06:54:37.658Z,12.69
2023-05-14T06:57:04.378Z,12.86
2023-05-14T06:59:31.222Z,13.09
2023-05-14T07:01:57.790Z,13.15
2023-05-14T07:04:24.465Z,13.25
2023-05-14T07:06:51.078Z,13.42
2023-05-14T07:09:17.692Z,13.51
2023-05-14T07:11:44.474Z,13.43
2023-05-14T07:14:11.274Z,13.48
2023-05-14T07:16:38.083Z,13.74
2023-05-14T07:19:04.641Z,13.87
2023-05-14T07:21:31.786Z,13.94
2023-05-14T07:23:58.319Z,13.98
2023-05-14T07:26:24.925Z,14.02
2023-05-14T07:28:51.457Z,14.04
2023-05-14T07:31:18.132Z,14.18
2023-05-14T07:33:44.910Z,14.37
2023-05-14T07:36:11.677Z,14.56
2023-05-14T07:38:38.247Z,14.70
2023-05-14T07:41:05.026Z,14.76
2023-05-14T07:43:31.677Z,14.81
2023-05-14T07:45:58.608Z,15.03
2023-05-14T07:48:25.129Z,15.03
2023-05-14T07:50:51.944Z,15.25
2023-05-14T07:53:18.427Z,15.49
2023-05-14T07:55:45.645Z,15.59
2023-05-14T07:58:12.194Z,15.82
2023-05-14T08:00:44.637Z,15.93
2023-05-14T08:03:11.351Z,17.46
2023-05-14T08:05:37.979Z,17.29
2023-05-14T08:08:04.613Z,18.88
2023-05-14T08:10:31.334Z,18.94
2023-05-14T08:12:57.862Z,20.18
2023-05-14T08:15:27.069Z,19.22
2023-05-14T08:17:54.356Z,20.36
2023-05-14T08:20:21.046Z,19.14
2023-05-14T08:22:47.658Z,20.10
2023-05-14T08:25:14.143Z,19.25
2023-05-14T08:27:40.718Z,19.62
2023-05-14T08:30:07.719Z,21.48
2023-05-14T08:32:34.324Z,20.42
2023-05-14T08:35:00.831Z,20.21
2023-05-14T08:37:27.544Z,19.15
2023-05-14T08:39:54.057Z,19.81
2023-05-14T08:42:22.030Z,20.97
2023-05-14T08:44:53.125Z,20.48
2023-05-14T08:47:22.189Z,22.54
2023-05-14T08:49:57.811Z,20.35
2023-05-14T08:52:24.556Z,22.68
2023-05-14T08:54:53.778Z,20.59
2023-05-14T08:57:21.441Z,19.62
2023-05-14T08:59:57.403Z,20.90
2023-05-14T09:02:27.613Z,21.37
2023-05-14T09:04:59.196Z,22.56
2023-05-14T09:07:25.975Z,23.24
2023-05-14T09:09:53.179Z,21.75
2023-05-14T09:12:20.458Z,22.15
2023-05-14T09:14:47.930Z,23.53
2023-05-14T09:17:15.271Z,22.63
2023-05-14T09:19:44.211Z,24.16
2023-05-14T09:22:16.147Z,23.89
2023-05-14T09:24:43.971Z,22.97
2023-05-14T09:27:19.888Z,23.31
2023-05-14T09:29:47.469Z,22.90
2023-05-14T09:32:14.033Z,23.62
2023-05-14T09:34:40.575Z,23.58
2023-05-14T09:37:08.700Z,23.02
2023-05-14T09:39:37.259Z,23.89
2023-05-14T09:42:04.233Z,24.14
2023-05-14T09:44:31.850Z,21.48
2023-05-14T09:46:58.777Z,21.85
2023-05-14T09:49:25.426Z,23.28
2023-05-14T09:51:51.975Z,22.61
2023-05-14T09:54:18.704Z,24.53
2023-05-14T09:56:45.521Z,23.53
2023-05-14T09:59:12.164Z,22.16
2023-05-14T10:01:40.414Z,23.98
2023-05-14T10:04:09.310Z,25.70
2023-05-14T10:06:38.228Z,26.63
2023-05-14T10:09:09.449Z,26.21
2023-05-14T10:11:38.690Z,25.98
2023-05-14T10:14:18.721Z,26.01
2023-05-14T10:16:50.701Z,24.86
2023-05-14T10:19:18.769Z,22.78
2023-05-14T10:21:49.876Z,24.11
2023-05-14T10:24:17.895Z,23.21
2023-05-14T10:26:45.289Z,22.06
2023-05-14T10:29:12.838Z,22.03
2023-05-14T10:31:55.537Z,23.16
2023-05-14T10:34:32.622Z,24.10
2023-05-14T10:37:01.444Z,21.69
2023-05-14T10:39:40.883Z,21.50
2023-05-14T10:42:10.701Z,21.32
2023-05-14T10:44:46.351Z,21.74
2023-05-14T10:47:13.118Z,21.24
2023-05-14T10:49:43.504Z,21.55
2023-05-14T10:52:11.943Z,21.67
2023-05-14T10:54:39.133Z,21.93
2023-05-14T10:57:11.372Z,22.08
2023-05-14T10:59:41.885Z,21.54
2023-05-14T11:02:20.589Z,21.54
2023-05-14T11:04:55.916Z,20.83
2023-05-14T11:07:27.231Z,21.47
2023-05-14T11:09:55.012Z,21.72
2023-05-14T11:12:21.818Z,21.52
2023-05-14T11:14:48.797Z,21.26
2023-05-14T11:17:15.843Z,21.20
2023-05-14T11:19:44.865Z,21.13
2023-05-14T11:22:14.712Z,21.38
2023-05-14T11:24:41.544Z,22.23
2023-05-14T11:27:11.813Z,22.46
2023-05-14T11:29:38.834Z,22.74
2023-05-14T11:32:06.495Z,23.02
2023-05-14T11:34:37.365Z,21.83
2023-05-14T11:37:08.253Z,21.42
2023-05-14T11:39:37.402Z,21.38
2023-05-14T11:42:05.908Z,22.88
2023-05-14T11:44:32.858Z,23.77
2023-05-14T11:47:01.410Z,22.80
2023-05-14T11:49:32.397Z,24.13
2023-05-14T11:52:00.480Z,24.85
2023-05-14T11:54:28.231Z,25.27
2023-05-14T11:56:56.385Z,25.37
2023-05-14T11:59:31.574Z,25.70
2023-05-14T12:01:59.077Z,25.47
2023-05-14T12:04:26.158Z,24.51
2023-05-14T12:06:53.812Z,23.56
2023-05-14T12:09:22.001Z,21.92
2023-05-14T12:11:53.771Z,21.96
2023-05-14T12:14:22.216Z,22.16
2023-05-14T12:16:49.748Z,22.20
2023-05-14T12:19:19.137Z,22.06
2023-05-14T12:21:48.197Z,22.25
2023-05-14T12:24:18.037Z,22.29
2023-05-14T12:26:49.581Z,22.32
2023-05-14T12:29:17.072Z,22.78
2023-05-14T12:31:48.390Z,24.57
2023-05-14T12:34:16.438Z,24.23
2023-05-14T12:36:46.787Z,25.29
2023-05-14T12:39:13.434Z,26.98
2023-05-14T12:41:40.175Z,27.49
2023-05-14T12:44:06.766Z,28.03
2023-05-14T12:46:34.285Z,28.19
2023-05-14T12:49:01.143Z,26.45
2023-05-14T12:51:27.777Z,26.86
2023-05-14T12:53:54.405Z,27.59
2023-05-14T12:56:21.570Z,28.51
2023-05-14T12:58:48.372Z,27.65
2023-05-14T13:01:15.226Z,26.94
2023-05-14T13:03:41.991Z,25.66
2023-05-14T13:06:08.796Z,24.79
2023-05-14T13:08:35.533Z,24.98
2023-05-14T13:11:02.088Z,24.68
2023-05-14T13:13:28.840Z,24.85
2023-05-14T13:15:55.856Z,26.77
2023-05-14T13:18:22.419Z,28.03
2023-05-14T13:20:48.950Z,28.31
2023-05-14T13:23:15.539Z,27.76
2023-05-14T13:25:42.187Z,26.59
2023-05-14T13:28:09.089Z,27.41
2023-05-14T13:30:35.783Z,29.11
2023-05-14T13:33:02.512Z,28.23
2023-05-14T13:35:29.206Z,28.43
2023-05-14T13:37:55.812Z,28.31
2023-05-14T13:40:22.437Z,28.81
2023-05-14T13:42:49.209Z,28.54
2023-05-14T13:45:15.749Z,26.91
2023-05-14T13:47:42.378Z,27.24
2023-05-14T13:50:09.197Z,26.40
2023-05-14T13:52:35.867Z,26.37
2023-05-14T13:55:02.408Z,26.08
2023-05-14T13:57:28.968Z,25.87
2023-05-14T13:59:56.156Z,25.19
2023-05-14T14:02:22.709Z,24.89
2023-05-14T14:04:49.512Z,24.09
2023-05-14T14:07:16.076Z,23.28
2023-05-14T14:09:42.803Z,23.12
2023-05-14T14:12:09.820Z,23.61
2023-05-14T14:14:36.356Z,23.63
2023-05-14T14:17:03.038Z,23.53
2023-05-14T14:19:30.010Z,23.70
2023-05-14T14:21:56.689Z,24.47
2023-05-14T14:24:23.140Z,24.58
2023-05-14T14:26:49.681Z,25.31
2023-05-14T14:29:16.288Z,26.33
2023-05-14T14:31:43.672Z,27.13
2023-05-14T14:34:10.315Z,27.63
2023-05-14T14:36:36.814Z,27.46
2023-05-14T14:39:03.682Z,26.86
2023-05-14T14:41:30.262Z,26.87
2023-05-14T14:43:56.845Z,26.18
2023-05-14T14:46:23.552Z,25.63
2023-05-14T14:48:50.098Z,25.61
2023-05-14T14:51:16.741Z,25.64
2023-05-14T14:53:43.308Z,25.51
2023-05-14T14:56:09.785Z,24.99
2023-05-14T14:58:36.670Z,25.13
2023-05-14T15:01:03.289Z,25.13
2023-05-14T15:03:30.136Z,25.61
2023-05-14T15:05:56.842Z,26.14
2023-05-14T15:08:28.164Z,26.66
2023-05-14T15:10:56.259Z,26.72
2023-05-14T15:13:24.065Z,25.64
2023-05-14T15:15:52.285Z,25.33
2023-05-14T15:18:18.978Z,25.03
2023-05-14T15:20:45.549Z,24.30
2023-05-14T15:23:12.030Z,24.68
2023-05-14T15:25:38.620Z,24.69
2023-05-14T15:28:08.247Z,25.20
2023-05-14T15:30:34.929Z,25.60
2023-05-14T15:33:01.635Z,25.88
2023-05-14T15:35:28.170Z,25.20
2023-05-14T15:37:59.027Z,24.76
2023-05-14T15:40:27.358Z,24.76
2023-05-14T15:42:54.112Z,24.47
2023-05-14T15:45:20.805Z,24.20
2023-05-14T15:47:47.304Z,24.01
2023-05-14T15:50:13.881Z,23.94
2023-05-14T15:52:41.443Z,24.05
2023-05-14T15:55:08.693Z,24.40
2023-05-14T15:57:35.312Z,24.53
2023-05-14T16:00:06.099Z,24.48
2023-05-14T16:02:33.374Z,24.60
2023-05-14T16:05:00.181Z,24.57
2023-05-14T16:07:26.851Z,24.38
2023-05-14T16:09:53.542Z,23.67
2023-05-14T16:12:20.208Z,23.84
2023-05-14T16:14:53.802Z,23.86
2023-05-14T16:17:29.948Z,23.90
2023-05-14T16:19:56.748Z,23.96
2023-05-14T16:22:23.405Z,24.11
2023-05-14T16:24:49.984Z,24.09
2023-05-14T16:27:18.826Z,24.23
2023-05-14T16:29:45.540Z,23.67
2023-05-14T16:32:12.146Z,23.70
2023-05-14T16:34:38.718Z,23.96
2023-05-14T16:37:05.690Z,23.97
2023-05-14T16:39:32.167Z,24.07
2023-05-14T16:41:58.701Z,24.20
2023-05-14T16:44:25.331Z,24.20
2023-05-14T16:46:51.916Z,24.18
2023-05-14T16:49:22.217Z,24.04
2023-05-14T16:51:49.459Z,23.98
2023-05-14T16:54:16.242Z,23.94
2023-05-14T16:56:43.623Z,23.96
2023-05-14T16:59:10.446Z,23.94
2023-05-14T17:01:37.448Z,23.80
2023-05-14T17:04:04.027Z,23.72
2023-05-14T17:06:31.046Z,23.46
2023-05-14T17:08:57.488Z,23.10
2023-05-14T17:11:24.067Z,22.95
2023-05-14T17:13:50.833Z,23.05
2023-05-14T17:16:17.432Z,23.01
2023-05-14T17:18:45.889Z,22.97
2023-05-14T17:21:12.780Z,22.90
2023-05-14T17:23:39.351Z,22.74
2023-05-14T17:26:05.911Z,22.53
2023-05-14T17:28:32.564Z,22.56
2023-05-14T17:30:59.139Z,22.46
2023-05-14T17:33:25.787Z,22.40
2023-05-14T17:35:52.366Z,22.41
2023-05-14T17:38:18.933Z,22.39
2023-05-14T17:40:45.546Z,22.35
2023-05-14T17:43:12.379Z,22.30
2023-05-14T17:45:52.533Z,22.10
2023-05-14T17:48:20.714Z,21.96
2023-05-14T17:50:47.264Z,21.79
2023-05-14T17:53:13.909Z,21.61
2023-05-14T17:57:37.323Z,21.35
2023-05-14T18:00:04.911Z,21.30
2023-05-14T18:02:31.495Z,21.14
2023-05-14T18:04:57.978Z,20.96
2023-05-14T18:07:24.559Z,20.87
2023-05-14T18:09:51.146Z,20.75
2023-05-14T18:12:17.858Z,20.62
2023-05-14T18:14:45.629Z,20.59
2023-05-14T18:17:12.495Z,20.49
2023-05-14T18:19:40.939Z,20.46
2023-05-14T18:22:07.479Z,20.31
2023-05-14T18:24:34.017Z,20.28
2023-05-14T18:27:00.818Z,20.26
2023-05-14T18:29:27.278Z,20.17
2023-05-14T18:31:53.805Z,20.10
2023-05-14T18:34:20.338Z,20.04
2023-05-14T18:36:47.095Z,20.03
2023-05-14T18:39:13.662Z,19.90
2023-05-14T18:41:40.162Z,19.71
2023-05-14T18:44:06.999Z,19.74
2023-05-14T18:46:33.650Z,19.67
2023-05-14T18:49:00.229Z,19.57
2023-05-14T18:51:26.714Z,19.59
2023-05-14T18:53:53.300Z,19.64
2023-05-14T18:56:20.078Z,19.53
2023-05-14T18:58:46.716Z,19.57
2023-05-14T19:01:13.340Z,19.55
2023-05-14T19:03:42.068Z,19.41
2023-05-14T19:06:08.740Z,19.32
2023-05-14T19:08:35.835Z,19.29
2023-05-14T19:11:02.887Z,19.29
2023-05-14T19:13:30.207Z,19.43
2023-05-14T19:15:56.873Z,19.55
2023-05-14T19:18:23.393Z,19.55
2023-05-14T19:20:50.092Z,19.63
2023-05-14T19:23:16.613Z,19.55
2023-05-14T19:25:43.135Z,19.43
2023-05-14T19:28:09.823Z,19.50
2023-05-14T19:30:36.311Z,19.43
2023-05-14T19:33:03.379Z,19.39
2023-05-14T19:35:29.984Z,19.35
2023-05-14T19:37:57.464Z,19.35
2023-05-14T19:40:24.107Z,19.38
2023-05-14T19:42:50.622Z,19.31
2023-05-14T19:45:17.248Z,19.26
2023-05-14T19:47:44.104Z,19.26
2023-05-14T19:50:11.250Z,19.25
2023-05-14T19:52:37.790Z,19.28
2023-05-14T19:55:04.785Z,19.26
2023-05-14T19:57:31.386Z,19.25
2023-05-14T19:59:59.379Z,19.22
2023-05-14T20:02:26.672Z,19.18
2023-05-14T20:04:56.663Z,19.18
2023-05-14T20:07:25.358Z,19.11
2023-05-14T20:09:52.260Z,19.02
2023-05-14T20:12:18.900Z,18.97
2023-05-14T20:14:45.885Z,18.91
2023-05-14T20:17:12.645Z,18.85
2023-05-14T20:19:39.203Z,18.88
2023-05-14T20:22:05.699Z,18.68
2023-05-14T20:24:32.177Z,18.48
2023-05-14T20:26:58.734Z,18.43
2023-05-14T20:29:25.714Z,18.16
2023-05-14T20:31:52.424Z,18.06
2023-05-14T20:34:19.204Z,18.04
2023-05-14T20:36:46.159Z,17.95
2023-05-14T20:39:12.606Z,18.09
2023-05-14T20:41:39.524Z,18.02
2023-05-14T20:44:06.190Z,18.04
2023-05-14T20:46:32.886Z,18.26
2023-05-14T20:49:02.027Z,18.09
2023-05-14T20:51:28.744Z,18.04
2023-05-14T20:53:55.318Z,18.01
2023-05-14T20:56:22.652Z,18.22
2023-05-14T20:58:49.176Z,18.02
2023-05-14T21:01:15.797Z,18.17
2023-05-14T21:03:42.492Z,18.08
2023-05-14T21:06:09.115Z,18.04
2023-05-14T21:08:37.687Z,18.08
2023-05-14T21:11:04.304Z,18.20
2023-05-14T21:13:30.788Z,17.95
2023-05-14T21:15:57.370Z,17.69
2023-05-14T21:18:27.336Z,17.68
2023-05-14T21:20:53.914Z,17.64
2023-05-14T21:23:20.651Z,17.55
2023-05-14T21:25:47.154Z,17.47
2023-05-14T21:28:13.719Z,17.46
2023-05-14T21:30:40.207Z,17.34
2023-05-14T21:33:06.779Z,17.21
2023-05-14T21:35:33.457Z,17.14
2023-05-14T21:37:59.967Z,16.98
2023-05-14T21:40:26.670Z,17.04
2023-05-14T21:42:53.194Z,17.00
2023-05-14T21:45:20.756Z,17.10
2023-05-14T21:47:48.783Z,17.04
2023-05-14T21:50:15.493Z,16.96
2023-05-14T21:52:42.097Z,16.98
2023-05-14T21:55:08.967Z,17.00
2023-05-14T21:57:35.684Z,16.95
2023-05-14T22:00:03.959Z,16.86
2023-05-14T22:02:31.196Z,16.73
2023-05-14T22:04:58.398Z,16.80
2023-05-14T22:07:25.068Z,16.68
2023-05-14T22:09:52.790Z,16.78
2023-05-14T22:12:19.566Z,16.71
2023-05-14T22:14:46.887Z,16.64
2023-05-14T22:17:13.378Z,16.75
2023-05-14T22:19:40.021Z,16.42
2023-05-14T22:22:06.636Z,16.30
2023-05-14T22:24:33.201Z,16.22
2023-05-14T22:26:59.709Z,16.09
2023-05-14T22:29:26.369Z,16.06
2023-05-14T22:31:53.035Z,16.01
2023-05-14T22:34:20.076Z,16.07
2023-05-14T22:36:46.652Z,15.94
2023-05-14T22:39:13.603Z,15.93
2023-05-14T22:41:40.407Z,15.87
2023-05-14T22:44:07.151Z,15.86
2023-05-14T22:46:33.668Z,15.80
2023-05-14T22:49:00.231Z,15.66
2023-05-14T22:51:26.799Z,15.48
2023-05-14T22:53:54.121Z,15.30
2023-05-14T22:56:21.792Z,15.15
2023-05-14T22:58:48.287Z,15.01
2023-05-14T23:01:14.935Z,15.01
2023-05-14T23:03:41.485Z,15.03
2023-05-14T23:06:08.062Z,15.00
2023-05-14T23:08:34.547Z,15.08
2023-05-14T23:11:01.079Z,15.10
2023-05-14T23:13:27.561Z,14.97
2023-05-14T23:15:54.220Z,14.83
2023-05-14T23:18:20.955Z,14.85
2023-05-14T23:20:47.513Z,14.93
2023-05-14T23:23:13.993Z,14.85
2023-05-14T23:25:40.479Z,14.66
2023-05-14T23:28:07.322Z,14.63
2023-05-14T23:30:33.894Z,14.69
2023-05-14T23:33:00.470Z,14.59
2023-05-14T23:35:27.457Z,14.56
2023-05-14T23:37:55.292Z,14.43
2023-05-14T23:40:21.978Z,14.26
2023-05-14T23:42:48.406Z,14.18
2023-05-14T23:45:14.907Z,14.26
2023-05-14T23:47:41.690Z,14.26
2023-05-14T23:50:08.510Z,14.39
2023-05-14T23:52:35.010Z,14.29
2023-05-14T23:55:01.666Z,14.28
